Time;durP1;ratioP1;P1;durP2;ratioP2;P2;SDS_P1;SDS_P2;PMS_P1;PMS_P2;Temp;Humidity;BMP_temperature;BMP_pressure;BME280_temperature;BME280_humidity;BME280_pressure;Samples;Min_cycle;Max_cycle;Signal;HPM_P1;HPM_P2
2022/12/19 00:01:17;;;;;;;0.50;0.30;;;-0.40;1.00;;;;;;6039868;23;20413;-71
2022/12/19 00:03:46;;;;;;;0.60;0.47;;;-0.50;1.00;;;;;;6043581;23;20780;-72
2022/12/19 00:06:17;;;;;;;2.47;2.33;;;-0.60;1.00;;;;;;6042535;23;20412;-71
2022/12/19 00:08:47;;;;;;;0.50;0.10;;;-0.60;1.00;;;;;;6041431;23;20408;-72
2022/12/19 00:11:18;;;;;;;0.70;0.60;;;-0.50;1.00;;;;;;6041219;23;20404;-73
2022/12/19 00:13:46;;;;;;;0.70;0.67;;;-0.50;1.00;;;;;;6040950;23;20476;-72
2022/12/19 00:16:16;;;;;;;0.50;0.10;;;-0.50;1.00;;;;;;6040406;23;20440;-72
2022/12/19 00:18:47;;;;;;;0.50;0.10;;;-0.40;1.00;;;;;;6040501;23;20405;-72
2022/12/19 00:21:20;;;;;;;0.70;0.60;;;-0.40;1.00;;;;;;6039975;23;20894;-73
2022/12/19 00:23:49;;;;;;;0.50;0.20;;;-0.40;1.00;;;;;;6045362;23;20488;-73
2022/12/19 00:26:21;;;;;;;2.77;2.67;;;-0.40;1.00;;;;;;6053567;23;20986;-73
2022/12/19 00:28:51;;;;;;;1.23;1.13;;;-0.40;1.00;;;;;;6051819;23;20412;-74
2022/12/19 00:31:20;;;;;;;3.90;3.70;;;-0.30;1.00;;;;;;6052287;23;20423;-72
2022/12/19 00:33:49;;;;;;;0.50;0.10;;;-0.30;1.00;;;;;;6050865;23;20412;-75
2022/12/19 00:36:18;;;;;;;58.60;19.30;;;-0.20;1.00;;;;;;6051651;23;20954;-73
2022/12/19 00:38:51;;;;;;;0.50;0.10;;;-0.20;1.00;;;;;;6046997;23;20933;-73
2022/12/19 00:41:22;;;;;;;0.50;0.10;;;-0.20;1.00;;;;;;6039714;23;20749;-73
2022/12/19 00:43:53;;;;;;;0.50;0.20;;;-0.20;1.00;;;;;;6041225;23;20404;-72
2022/12/19 00:46:21;;;;;;;0.50;0.10;;;-0.30;1.00;;;;;;6055004;23;20448;-74
2022/12/19 00:48:49;;;;;;;0.50;0.10;;;-0.20;1.00;;;;;;6057766;23;20420;-72
2022/12/19 00:51:19;;;;;;;0.50;0.10;;;-0.10;1.00;;;;;;6041281;23;20413;-73
2022/12/19 00:53:48;;;;;;;0.50;0.10;;;-0.10;1.00;;;;;;6040287;23;20409;-73
2022/12/19 00:56:18;;;;;;;0.50;0.10;;;-0.10;1.00;;;;;;6048469;23;20429;-74
2022/12/19 00:58:48;;;;;;;1.80;1.70;;;0.00;1.00;;;;;;6048417;23;20412;-73
2022/12/19 05:01:21;;;;;;;1.07;0.67;;;;;;;;;;5976367;23;20678;-76
2022/12/19 05:03:50;;;;;;;0.50;0.10;;;0.70;1.00;;;;;;6039018;23;20417;-77
2022/12/19 05:06:24;;;;;;;0.50;0.10;;;0.70;1.00;;;;;;6041630;23;20507;-76
2022/12/19 05:08:52;;;;;;;0.50;0.10;;;0.60;1.00;;;;;;6041421;23;20409;-77
2022/12/19 05:11:20;;;;;;;0.50;0.10;;;0.60;1.00;;;;;;6041317;23;20433;-76
2022/12/19 05:13:48;;;;;;;17.57;16.53;;;0.60;1.00;;;;;;6040834;23;20886;-77
2022/12/19 05:16:17;;;;;;;0.50;0.10;;;;;;;;;;6038439;23;20464;-70
2022/12/19 05:18:46;;;;;;;0.50;0.10;;;0.60;1.00;;;;;;6038240;23;20406;-72
2022/12/19 05:21:14;;;;;;;0.50;0.10;;;;;;;;;;6037963;23;20438;-72
2022/12/19 05:23:42;;;;;;;0.50;0.10;;;0.60;1.00;;;;;;6037895;23;20440;-72
2022/12/19 05:26:11;;;;;;;0.50;0.10;;;0.70;1.00;;;;;;6037752;23;20452;-71
2022/12/19 05:28:39;;;;;;;0.50;0.10;;;0.70;1.00;;;;;;6038151;23;20416;-72
2022/12/19 05:31:09;;;;;;;0.50;0.10;;;0.70;1.00;;;;;;6037931;23;20412;-71
2022/12/19 05:33:38;;;;;;;0.50;0.10;;;0.70;1.00;;;;;;6037341;23;20466;-71
2022/12/19 05:36:08;;;;;;;0.50;0.10;;;0.80;1.00;;;;;;6038003;23;20431;-72
2022/12/19 05:38:37;;;;;;;0.50;0.10;;;;;;;;;;6037012;23;20449;-72
2022/12/19 05:41:07;;;;;;;0.50;0.10;;;0.80;1.00;;;;;;6037741;23;20424;-72
2022/12/19 05:43:35;;;;;;;0.50;0.10;;;0.80;1.00;;;;;;6037614;23;20397;-71
2022/12/19 05:46:04;;;;;;;0.83;0.83;;;0.80;1.00;;;;;;6038799;23;20453;-71
2022/12/19 05:48:32;;;;;;;0.50;0.10;;;0.80;1.00;;;;;;6039364;23;20420;-71
2022/12/19 05:51:00;;;;;;;0.50;0.10;;;0.80;1.00;;;;;;6038877;23;20805;-71
2022/12/19 05:53:29;;;;;;;0.50;0.10;;;0.80;1.00;;;;;;6038231;23;20417;-72
2022/12/19 05:56:04;;;;;;;0.50;0.10;;;0.80;1.00;;;;;;6038106;23;20428;-71
2022/12/19 05:58:32;;;;;;;0.50;0.10;;;0.80;1.00;;;;;;6037395;23;20392;-71
2022/12/19 06:01:03;;;;;;;0.50;0.10;;;0.80;1.00;;;;;;6035565;23;20420;-71
2022/12/19 06:03:31;;;;;;;0.60;0.30;;;1.80;1.00;;;;;;6035170;23;20519;-71
2022/12/19 06:06:02;;;;;;;0.53;0.20;;;0.80;1.00;;;;;;6032487;23;20490;-71
2022/12/19 06:08:32;;;;;;;0.50;0.10;;;0.80;1.00;;;;;;6034406;23;20409;-72
2022/12/19 06:11:00;;;;;;;0.50;0.10;;;0.80;1.00;;;;;;6031491;23;20439;-71
2022/12/19 06:13:28;;;;;;;0.50;0.20;;;1.30;1.00;;;;;;6033833;23;20483;-72
2022/12/19 06:15:59;;;;;;;0.50;0.17;;;0.90;1.00;;;;;;6036353;23;20437;-72
2022/12/19 06:18:27;;;;;;;0.50;0.10;;;0.90;1.00;;;;;;6036270;23;20408;-72
2022/12/19 06:20:57;;;;;;;0.50;0.10;;;0.90;1.00;;;;;;6035690;23;20821;-71
2022/12/19 06:23:25;;;;;;;0.70;0.30;;;0.90;1.00;;;;;;6036059;23;20419;-71
2022/12/19 06:25:56;;;;;;;0.50;0.20;;;0.90;1.00;;;;;;6037489;23;20449;-72
2022/12/19 06:28:24;;;;;;;0.50;0.10;;;0.90;1.00;;;;;;6035864;23;20411;-72
2022/12/19 06:30:52;;;;;;;0.70;0.20;;;0.90;1.00;;;;;;6037501;23;20409;-69
2022/12/19 06:33:19;;;;;;;0.50;0.10;;;1.00;1.00;;;;;;6036476;23;20775;-70
2022/12/19 06:35:47;;;;;;;1.17;0.43;;;1.00;1.00;;;;;;6035815;23;20453;-70
2022/12/19 06:38:15;;;;;;;0.50;0.23;;;1.00;1.00;;;;;;6033208;23;20440;-70
2022/12/19 06:43:30;;;;;;;0.50;0.20;;;1.00;1.00;;;;;;6036559;23;20472;-69
2022/12/19 06:45:58;;;;;;;0.60;0.40;;;0.90;1.00;;;;;;6037500;23;20781;-69
2022/12/19 06:48:27;;;;;;;0.73;0.73;;;1.00;1.00;;;;;;6036597;23;20408;-69
2022/12/19 06:50:55;;;;;;;0.60;0.43;;;1.00;1.00;;;;;;6038164;23;20925;-68
2022/12/19 06:53:25;;;;;;;0.50;0.10;;;1.00;1.00;;;;;;6039294;23;20401;-69
2022/12/19 06:55:57;;;;;;;0.50;0.10;;;1.00;1.00;;;;;;6039571;23;20898;-69
2022/12/19 06:58:25;;;;;;;2.53;1.43;;;1.00;1.00;;;;;;6039032;23;20500;-69
2022/12/19 07:00:54;;;;;;;8.87;8.30;;;1.00;1.00;;;;;;6039757;23;20412;-69
2022/12/19 07:03:25;;;;;;;0.50;0.10;;;0.90;1.00;;;;;;6038571;23;20899;-69
2022/12/19 07:05:53;;;;;;;0.50;0.10;;;1.00;1.00;;;;;;6039616;23;20408;-68
2022/12/19 07:08:21;;;;;;;2.90;2.60;;;1.00;1.00;;;;;;6040146;23;20409;-68
2022/12/19 07:10:52;;;;;;;1.17;0.77;;;1.00;1.00;;;;;;6040654;23;20408;-69
2022/12/19 07:13:20;;;;;;;0.50;0.10;;;1.10;1.00;;;;;;6040309;23;20431;-70
2022/12/19 07:15:49;;;;;;;0.50;0.10;;;1.10;1.00;;;;;;6040533;23;20480;-69
2022/12/19 07:18:18;;;;;;;0.50;0.10;;;1.10;1.00;;;;;;6038945;23;20409;-69
2022/12/19 07:20:46;;;;;;;0.60;0.30;;;1.10;1.00;;;;;;6039293;23;20413;-68
2022/12/19 07:23:18;;;;;;;0.50;0.10;;;1.10;1.00;;;;;;6041095;23;20405;-69
2022/12/19 07:25:46;;;;;;;0.50;0.10;;;1.10;1.00;;;;;;6042999;23;20464;-70
2022/12/19 07:28:15;;;;;;;0.50;0.10;;;1.10;1.00;;;;;;6043881;23;20407;-70
2022/12/19 07:30:43;;;;;;;1.90;1.80;;;1.10;1.00;;;;;;6039433;23;20416;-70
2022/12/19 07:33:11;;;;;;;0.50;0.10;;;1.20;1.00;;;;;;6038860;23;20512;-69
2022/12/19 07:35:47;;;;;;;0.50;0.10;;;1.20;1.00;;;;;;6039564;23;20416;-70
2022/12/19 07:38:15;;;;;;;0.60;0.60;;;1.20;1.00;;;;;;6039601;23;20401;-69
2022/12/19 07:40:43;;;;;;;0.50;0.37;;;1.20;1.00;;;;;;6038664;23;20409;-69
2022/12/19 07:43:11;;;;;;;0.50;0.33;;;1.20;1.00;;;;;;6038573;23;20408;-71
2022/12/19 07:45:39;;;;;;;0.50;0.10;;;1.20;1.00;;;;;;6038116;23;20909;-70
2022/12/19 07:48:07;;;;;;;0.50;0.10;;;1.20;1.00;;;;;;6038701;23;20448;-69
2022/12/19 07:50:35;;;;;;;0.50;0.10;;;1.20;1.00;;;;;;6038687;23;20409;-69
2022/12/19 07:53:04;;;;;;;0.50;0.10;;;1.30;1.00;;;;;;6038845;23;20408;-70
2022/12/19 07:55:32;;;;;;;0.50;0.10;;;1.20;1.00;;;;;;6038717;23;20415;-70
2022/12/19 07:58:00;;;;;;;10.67;9.20;;;1.30;1.00;;;;;;6039062;23;20405;-69
2022/12/19 08:00:29;;;;;;;0.50;0.10;;;1.30;1.00;;;;;;6038389;23;20492;-70
2022/12/19 08:02:58;;;;;;;0.50;0.10;;;1.30;1.00;;;;;;6038691;23;20515;-70
2022/12/19 08:05:26;;;;;;;0.50;0.10;;;1.30;1.00;;;;;;6038929;23;20405;-69
2022/12/19 08:07:54;;;;;;;3.17;2.97;;;1.30;1.00;;;;;;6040118;23;20953;-69
2022/12/19 08:10:23;;;;;;;0.50;0.10;;;1.30;1.00;;;;;;6041926;23;20412;-70
2022/12/19 08:12:51;;;;;;;0.50;0.10;;;1.30;1.00;;;;;;6041792;23;20508;-69
2022/12/19 08:15:19;;;;;;;0.50;0.20;;;1.30;1.00;;;;;;6039228;23;20408;-70
2022/12/19 08:17:47;;;;;;;0.50;0.10;;;1.40;1.00;;;;;;6038887;23;20432;-70
2022/12/19 08:20:15;;;;;;;0.50;0.10;;;1.40;1.00;;;;;;6038882;23;20457;-69
2022/12/19 08:22:43;;;;;;;0.50;0.10;;;1.40;1.00;;;;;;6038510;23;20405;-69
2022/12/19 08:25:12;;;;;;;0.50;0.10;;;1.40;1.00;;;;;;6038474;23;20412;-70
2022/12/19 08:27:41;;;;;;;0.50;0.10;;;1.50;1.00;;;;;;6038630;23;20444;-68
2022/12/19 08:30:12;;;;;;;0.50;0.10;;;1.50;1.00;;;;;;6038108;23;20428;-69
2022/12/19 08:32:40;;;;;;;0.50;0.10;;;1.50;1.00;;;;;;6038042;23;20913;-71
2022/12/19 08:35:08;;;;;;;0.50;0.30;;;1.50;1.00;;;;;;6038560;23;20491;-70
2022/12/19 08:37:36;;;;;;;0.50;0.20;;;1.50;1.00;;;;;;6038560;23;20424;-70
2022/12/19 08:40:05;;;;;;;0.50;0.10;;;1.50;1.00;;;;;;6038574;23;20469;-70
2022/12/19 08:42:33;;;;;;;0.93;0.73;;;1.60;1.00;;;;;;6038468;23;20409;-71
2022/12/19 08:45:02;;;;;;;0.50;0.10;;;1.60;1.00;;;;;;6038829;23;20416;-70
2022/12/19 08:47:30;;;;;;;0.50;0.20;;;1.60;1.00;;;;;;6038751;23;20452;-69
2022/12/19 08:49:58;;;;;;;0.50;0.10;;;1.60;1.00;;;;;;6038541;23;20412;-69
2022/12/19 08:52:26;;;;;;;0.50;0.10;;;1.60;1.00;;;;;;6038032;23;20415;-68
2022/12/19 08:54:54;;;;;;;1.10;0.67;;;1.70;1.00;;;;;;6038546;23;20408;-69
2022/12/19 08:57:21;;;;;;;0.50;0.10;;;1.70;1.00;;;;;;6038569;23;20741;-70
2022/12/19 08:59:49;;;;;;;0.50;0.10;;;1.70;1.00;;;;;;6038138;23;20475;-69
2022/12/19 09:02:19;;;;;;;0.50;0.10;;;1.70;1.00;;;;;;6038188;23;20436;-71
2022/12/19 09:04:48;;;;;;;0.50;0.10;;;1.70;1.00;;;;;;6038409;23;20472;-69
2022/12/19 09:07:36;;;;;;;0.50;0.10;;;1.80;1.00;;;;;;6039178;23;20445;-70
2022/12/19 09:10:07;;;;;;;0.50;0.10;;;1.80;1.00;;;;;;6039506;23;20917;-69
2022/12/19 09:12:35;;;;;;;0.60;0.40;;;1.80;1.00;;;;;;6038398;23;20404;-69
2022/12/19 09:15:03;;;;;;;0.50;0.10;;;1.80;1.00;;;;;;6038379;23;20468;-69
2022/12/19 09:17:32;;;;;;;0.50;0.10;;;1.80;1.00;;;;;;6036965;23;20440;-69
2022/12/19 09:20:00;;;;;;;0.50;0.10;;;1.80;1.00;;;;;;6038308;23;20413;-70
2022/12/19 09:22:27;;;;;;;0.50;0.10;;;1.80;1.00;;;;;;6036170;23;20451;-69
2022/12/19 09:24:56;;;;;;;0.50;0.10;;;1.80;1.00;;;;;;6038630;23;20447;-69
2022/12/19 09:27:24;;;;;;;0.50;0.10;;;1.80;1.00;;;;;;6036991;23;20448;-70
2022/12/19 09:29:52;;;;;;;0.50;0.10;;;1.80;1.00;;;;;;6039039;23;20442;-71
2022/12/19 09:32:19;;;;;;;1.03;1.03;;;1.80;1.00;;;;;;6039280;23;20416;-69
2022/12/19 09:34:49;;;;;;;0.50;0.10;;;;;;;;;;6038981;23;20464;-71
2022/12/19 09:37:17;;;;;;;12.80;12.00;;;1.80;1.00;;;;;;6038611;23;20438;-72
2022/12/19 09:39:46;;;;;;;0.50;0.10;;;1.90;1.00;;;;;;6039135;23;20409;-70
2022/12/19 09:42:40;;;;;;;2.33;2.23;;;1.90;1.00;;;;;;6038138;23;20923;-70
2022/12/19 09:45:25;;;;;;;1.90;1.80;;;1.90;1.00;;;;;;6038297;23;20386;-70
2022/12/19 09:48:00;;;;;;;0.50;0.10;;;1.90;1.00;;;;;;6039378;23;20496;-69
2022/12/19 09:50:39;;;;;;;0.80;0.80;;;1.80;1.00;;;;;;6038236;23;20913;-69
2022/12/19 09:53:15;;;;;;;0.50;0.10;;;1.90;1.00;;;;;;6038163;23;20413;-69
2022/12/19 09:55:44;;;;;;;0.50;0.10;;;1.90;1.00;;;;;;6038436;23;20415;-70
2022/12/19 09:58:18;;;;;;;0.50;0.10;;;1.90;1.00;;;;;;6038872;23;20405;-70
2022/12/19 10:00:49;;;;;;;0.50;0.30;;;1.90;1.00;;;;;;6038935;23;20463;-71
2022/12/19 10:03:27;;;;;;;0.57;0.37;;;1.90;1.00;;;;;;6038413;23;20396;-70
2022/12/19 10:06:05;;;;;;;0.50;0.10;;;1.90;1.00;;;;;;6038577;23;20993;-69
2022/12/19 10:08:53;;;;;;;0.50;0.10;;;2.00;1.00;;;;;;6038168;23;20692;-70
2022/12/19 10:11:55;;;;;;;0.50;0.10;;;2.00;1.00;;;;;;6038046;23;20401;-71
2022/12/19 10:14:57;;;;;;;0.50;0.10;;;2.00;1.00;;;;;;6037648;23;20928;-71
2022/12/19 10:17:33;;;;;;;0.50;0.20;;;2.00;1.00;;;;;;6038433;23;20436;-70
2022/12/19 10:20:17;;;;;;;0.50;0.10;;;2.00;1.00;;;;;;6037840;23;20789;-69
2022/12/19 10:22:57;;;;;;;0.60;0.20;;;2.00;1.00;;;;;;6037534;23;20854;-70
2022/12/19 10:25:31;;;;;;;0.80;0.80;;;2.00;1.00;;;;;;6038382;23;20416;-70
2022/12/19 10:28:11;;;;;;;0.50;0.10;;;2.00;1.00;;;;;;6037651;23;20756;-70
2022/12/19 10:30:47;;;;;;;0.50;0.10;;;2.10;1.00;;;;;;6037782;23;20985;-72
2022/12/19 10:33:23;;;;;;;0.50;0.10;;;2.10;1.00;;;;;;6040155;23;20408;-70
2022/12/19 10:35:56;;;;;;;0.50;0.10;;;2.10;1.00;;;;;;6040296;23;20514;-69
2022/12/19 10:38:34;;;;;;;0.60;0.20;;;2.10;1.00;;;;;;6040442;23;20384;-70
2022/12/19 10:41:14;;;;;;;0.50;0.10;;;2.10;1.00;;;;;;6040196;23;20477;-69
2022/12/19 10:43:51;;;;;;;0.77;0.77;;;2.10;1.00;;;;;;6039714;23;20412;-70
2022/12/19 10:46:25;;;;;;;0.80;0.80;;;2.10;1.00;;;;;;6039781;23;20436;-72
2022/12/19 10:48:53;;;;;;;0.50;0.10;;;2.10;1.00;;;;;;6040411;23;20447;-70
2022/12/19 10:51:24;;;;;;;3.03;2.83;;;2.10;1.00;;;;;;6039335;23;20409;-68
2022/12/19 10:54:00;;;;;;;0.50;0.10;;;2.20;1.00;;;;;;6039656;23;20413;-71
2022/12/19 10:56:30;;;;;;;31.30;29.33;;;2.20;1.00;;;;;;6039275;23;20436;-70
2022/12/19 10:59:15;;;;;;;0.50;0.10;;;2.20;1.00;;;;;;6040201;23;20385;-69
2022/12/19 11:01:44;;;;;;;0.50;0.10;;;2.20;1.00;;;;;;6039492;23;20416;-70
2022/12/19 11:04:28;;;;;;;0.50;0.10;;;2.20;1.00;;;;;;6039656;23;20795;-71
2022/12/19 11:07:18;;;;;;;0.60;0.50;;;2.30;1.00;;;;;;6040427;23;20428;-69
2022/12/19 11:09:47;;;;;;;2.10;2.00;;;2.30;1.00;;;;;;6041560;23;20479;-71
2022/12/19 11:12:35;;;;;;;0.50;0.10;;;2.30;1.00;;;;;;6043952;23;20777;-70
2022/12/19 11:15:23;;;;;;;0.53;0.30;;;2.40;1.00;;;;;;6045407;23;20469;-72
2022/12/19 11:18:12;;;;;;;0.50;0.10;;;2.40;1.00;;;;;;6042420;23;20424;-70
2022/12/19 11:21:01;;;;;;;0.50;0.10;;;2.40;1.00;;;;;;6041489;23;20905;-70
2022/12/19 11:23:52;;;;;;;0.50;0.10;;;2.40;1.00;;;;;;6040790;23;20446;-70
2022/12/19 11:26:44;;;;;;;0.50;0.10;;;2.40;1.00;;;;;;6039336;23;20424;-71
2022/12/19 11:29:44;;;;;;;0.50;0.10;;;2.40;1.00;;;;;;6037983;23;20452;-70
2022/12/19 11:32:34;;;;;;;0.50;0.10;;;2.40;1.00;;;;;;6038962;23;20488;-70
2022/12/19 11:35:17;;;;;;;0.50;0.20;;;2.40;1.00;;;;;;6038841;23;20945;-68
2022/12/19 11:37:49;;;;;;;0.50;0.10;;;2.50;1.00;;;;;;6038772;23;20424;-70
2022/12/19 11:40:31;;;;;;;0.50;0.10;;;2.50;1.00;;;;;;6039792;23;20720;-68
2022/12/19 11:43:06;;;;;;;0.60;0.50;;;2.50;1.00;;;;;;6039121;23;20415;-70
2022/12/19 11:45:59;;;;;;;0.60;0.30;;;2.60;1.00;;;;;;6038796;23;20452;-70
2022/12/19 11:48:40;;;;;;;0.50;0.10;;;2.60;1.00;;;;;;6039361;23;20444;-72
2022/12/19 11:51:17;;;;;;;0.60;0.40;;;2.60;1.00;;;;;;6039664;23;20452;-72
2022/12/19 11:53:50;;;;;;;0.50;0.10;;;2.60;1.00;;;;;;6039214;23;20703;-71
2022/12/19 11:56:23;;;;;;;0.50;0.10;;;2.60;1.00;;;;;;6040562;23;20441;-69
2022/12/19 11:58:57;;;;;;;0.50;0.10;;;2.60;1.00;;;;;;6039694;23;21007;-70
2022/12/19 12:01:41;;;;;;;0.50;0.10;;;2.60;1.00;;;;;;6039837;23;20491;-70
2022/12/19 12:04:52;;;;;;;0.50;0.10;;;2.60;1.00;;;;;;6038519;23;20400;-71
2022/12/19 12:07:21;;;;;;;0.50;0.10;;;2.70;1.00;;;;;;6038952;23;20504;-69
2022/12/19 12:10:16;;;;;;;0.50;0.10;;;2.70;1.00;;;;;;6038945;23;20476;-70
2022/12/19 12:13:18;;;;;;;0.50;0.10;;;2.70;1.00;;;;;;6038207;23;20789;-70
2022/12/19 12:16:11;;;;;;;0.50;0.10;;;2.80;1.00;;;;;;6038589;23;20447;-71
2022/12/19 12:19:11;;;;;;;0.50;0.20;;;2.80;1.00;;;;;;6038640;23;20898;-70
2022/12/19 12:22:09;;;;;;;0.50;0.10;;;2.80;1.00;;;;;;6038774;23;21165;-69
2022/12/19 12:25:14;;;;;;;0.50;0.10;;;2.90;1.00;;;;;;6039023;23;20452;-70
2022/12/19 12:28:20;;;;;;;0.50;0.10;;;2.90;1.00;;;;;;6038665;23;20460;-69
2022/12/19 12:31:19;;;;;;;0.50;0.10;;;3.00;1.00;;;;;;6039210;23;20444;-71
2022/12/19 12:34:22;;;;;;;0.50;0.10;;;3.00;1.00;;;;;;6038389;23;20445;-72
2022/12/19 12:37:27;;;;;;;0.50;0.10;;;3.00;1.00;;;;;;6039035;23;20456;-72
2022/12/19 12:40:43;;;;;;;0.50;0.30;;;3.00;1.00;;;;;;6038949;23;20404;-70
2022/12/19 12:43:21;;;;;;;0.50;0.10;;;3.00;1.00;;;;;;6033686;23;20413;-70
2022/12/19 12:45:49;;;;;;;0.50;0.10;;;2.90;1.00;;;;;;6038488;23;20401;-70
2022/12/19 12:48:24;;;;;;;1.53;1.43;;;2.90;1.00;;;;;;6039014;23;20464;-71
2022/12/19 12:50:54;;;;;;;0.50;0.10;;;2.90;1.00;;;;;;6038787;23;20476;-70
2022/12/19 12:53:26;;;;;;;0.50;0.10;;;2.90;1.00;;;;;;6037952;23;20517;-69
2022/12/19 12:55:57;;;;;;;0.50;0.10;;;2.90;1.00;;;;;;6038225;23;20741;-70
2022/12/19 12:59:05;;;;;;;2.83;2.73;;;2.90;1.00;;;;;;6038817;23;20420;-70
2022/12/19 13:01:35;;;;;;;0.50;0.10;;;2.90;1.00;;;;;;6038964;23;20732;-70
2022/12/19 13:04:18;;;;;;;0.50;0.10;;;2.90;1.00;;;;;;6037751;23;20443;-69
2022/12/19 13:07:04;;;;;;;0.50;0.10;;;2.90;1.00;;;;;;6037989;23;20439;-68
2022/12/19 13:09:35;;;;;;;0.50;0.10;;;2.90;1.00;;;;;;6038393;23;20532;-69
2022/12/19 13:15:19;;;;;;;0.50;0.10;;;2.90;1.00;;;;;;6038473;23;20407;-71
2022/12/19 13:18:12;;;;;;;0.50;0.10;;;2.90;1.00;;;;;;6027137;23;20437;-70
2022/12/19 13:20:45;;;;;;;1.37;1.27;;;2.90;1.00;;;;;;6038238;23;20463;-68
2022/12/19 13:23:42;;;;;;;0.50;0.10;;;2.90;1.00;;;;;;6038326;23;20415;-68
2022/12/19 13:26:21;;;;;;;0.50;0.10;;;2.90;1.00;;;;;;6038208;23;20433;-71
2022/12/19 13:28:49;;;;;;;0.50;0.10;;;3.00;1.00;;;;;;6038582;23;20409;-69
2022/12/19 13:31:19;;;;;;;0.50;0.10;;;3.00;1.00;;;;;;6037997;23;21043;-69
2022/12/19 13:34:17;;;;;;;0.50;0.10;;;3.00;1.00;;;;;;6037529;23;20464;-70
2022/12/19 13:36:52;;;;;;;0.50;0.10;;;3.10;1.00;;;;;;6038264;23;20439;-69
2022/12/19 13:39:46;;;;;;;0.50;0.10;;;3.10;1.00;;;;;;6037632;23;20397;-69
2022/12/19 13:45:41;;;;;;;0.50;0.10;;;3.10;1.00;;;;;;6038261;23;20412;-69
2022/12/19 13:48:15;;;;;;;0.50;0.10;;;3.10;1.00;;;;;;6038226;23;20444;-70
2022/12/19 13:50:47;;;;;;;0.50;0.10;;;3.30;1.00;;;;;;6038090;23;20475;-69
2022/12/19 13:53:19;;;;;;;0.73;0.73;;;3.20;1.00;;;;;;6037976;23;20391;-70
2022/12/19 13:55:48;;;;;;;0.50;0.10;;;3.20;1.00;;;;;;6038333;23;20409;-70
2022/12/19 13:58:24;;;;;;;0.50;0.10;;;3.20;1.00;;;;;;6038102;23;20448;-70
2022/12/19 14:00:58;;;;;;;0.50;0.10;;;3.20;1.00;;;;;;6038456;23;20897;-70
2022/12/19 14:03:34;;;;;;;0.50;0.10;;;3.20;1.00;;;;;;6037579;23;20460;-70
2022/12/19 14:06:11;;;;;;;0.50;0.10;;;3.20;1.00;;;;;;6038319;23;20424;-69
2022/12/19 14:08:49;;;;;;;0.50;0.10;;;3.20;1.00;;;;;;6039655;23;20384;-71
2022/12/19 14:11:43;;;;;;;0.77;0.77;;;3.10;1.00;;;;;;6039768;23;20972;-69
2022/12/19 14:17:35;;;;;;;2.00;1.90;;;3.20;1.00;;;;;;6039362;23;20527;-69
2022/12/19 14:20:15;;;;;;;0.50;0.10;;;3.20;1.00;;;;;;6039694;23;20412;-69
2022/12/19 14:23:05;;;;;;;0.50;0.10;;;3.10;1.00;;;;;;6039069;23;20432;-69
2022/12/19 14:25:38;;;;;;;0.60;0.53;;;3.20;1.00;;;;;;6039861;23;20405;-70
2022/12/19 14:28:36;;;;;;;0.50;0.10;;;3.20;1.00;;;;;;6039978;23;20905;-70
2022/12/19 14:31:07;;;;;;;0.50;0.10;;;3.20;1.00;;;;;;6039629;23;20442;-69
2022/12/19 14:33:40;;;;;;;0.50;0.10;;;3.20;1.00;;;;;;6039596;23;20463;-70
2022/12/19 14:36:31;;;;;;;0.70;0.70;;;3.20;1.00;;;;;;6040232;23;20433;-72
2022/12/19 14:38:59;;;;;;;0.50;0.10;;;3.20;1.00;;;;;;6039956;23;20413;-69
2022/12/19 14:44:48;;;;;;;0.50;0.10;;;3.20;1.00;;;;;;5993056;23;20503;-70
2022/12/19 14:47:38;;;;;;;0.50;0.10;;;3.20;1.00;;;;;;6039277;23;20428;-70
2022/12/19 14:50:29;;;;;;;0.50;0.10;;;3.20;1.00;;;;;;6039235;23;20476;-71
2022/12/19 14:53:19;;;;;;;0.50;0.10;;;3.20;1.00;;;;;;6039285;23;20905;-68
2022/12/19 14:56:10;;;;;;;0.50;0.10;;;3.20;1.00;;;;;;6039979;23;20432;-70
2022/12/19 14:58:59;;;;;;;0.50;0.10;;;3.20;1.00;;;;;;6039749;23;20401;-69
2022/12/19 15:01:29;;;;;;;0.50;0.10;;;3.10;1.00;;;;;;6039775;23;20400;-68
2022/12/19 15:04:01;;;;;;;0.50;0.10;;;3.20;1.00;;;;;;6039524;23;20417;-68
2022/12/19 15:06:53;;;;;;;0.53;0.20;;;3.20;1.00;;;;;;6040246;23;20504;-69
2022/12/19 15:09:51;;;;;;;0.50;0.20;;;3.20;1.00;;;;;;6041344;23;20719;-69
2022/12/19 15:15:59;;;;;;;4.20;4.00;;;3.10;1.00;;;;;;6041905;23;20475;-71
2022/12/19 15:18:38;;;;;;;0.50;0.10;;;3.10;1.00;;;;;;6043369;23;20421;-70
2022/12/19 15:21:08;;;;;;;0.50;0.30;;;3.10;1.00;;;;;;6041562;23;20464;-69
2022/12/19 15:23:36;;;;;;;0.50;0.20;;;3.10;1.00;;;;;;6040912;23;20468;-71
2022/12/19 15:26:06;;;;;;;0.50;0.10;;;3.10;1.00;;;;;;6041046;23;20732;-70
2022/12/19 15:28:41;;;;;;;0.60;0.10;;;3.10;1.00;;;;;;6040870;23;20409;-69
2022/12/19 15:31:30;;;;;;;0.50;0.10;;;3.10;1.00;;;;;;6039524;23;21044;-72
2022/12/19 15:33:59;;;;;;;0.50;0.10;;;3.10;1.00;;;;;;6039362;23;20420;-69
2022/12/19 15:36:47;;;;;;;0.50;0.10;;;3.00;1.00;;;;;;6039495;23;20429;-70
2022/12/19 15:39:15;;;;;;;1.17;1.07;;;3.00;1.00;;;;;;6039439;23;20420;-69
2022/12/19 15:41:43;;;;;;;0.50;0.10;;;3.00;1.00;;;;;;6039828;23;20415;-69
2022/12/19 15:44:17;;;;;;;0.50;0.10;;;3.00;1.00;;;;;;6038997;23;20420;-67
2022/12/19 15:46:47;;;;;;;0.50;0.10;;;3.00;1.00;;;;;;6038882;23;20938;-70
2022/12/19 15:49:17;;;;;;;0.50;0.10;;;2.10;1.00;;;;;;6039174;23;20401;-69
2022/12/19 15:51:45;;;;;;;0.50;0.10;;;3.00;1.00;;;;;;6038846;23;20534;-69
2022/12/19 15:54:14;;;;;;;0.50;0.10;;;3.00;1.00;;;;;;6038801;23;20499;-68
2022/12/19 15:57:01;;;;;;;0.50;0.10;;;3.00;1.00;;;;;;6038000;23;20810;-70
2022/12/19 15:59:34;;;;;;;0.50;0.10;;;2.90;1.00;;;;;;6039078;23;20432;-70
2022/12/19 16:02:15;;;;;;;0.50;0.10;;;2.90;1.00;;;;;;6038463;23;20472;-70
2022/12/19 16:04:45;;;;;;;0.50;0.20;;;2.90;1.00;;;;;;6037921;23;20714;-69
2022/12/19 16:07:16;;;;;;;0.50;0.10;;;2.90;1.00;;;;;;6038374;23;20435;-72
2022/12/19 16:09:44;;;;;;;0.50;0.10;;;2.90;1.00;;;;;;6033643;23;20957;-68
2022/12/19 16:12:15;;;;;;;0.50;0.10;;;2.90;1.00;;;;;;6037941;23;20431;-69
2022/12/19 16:14:43;;;;;;;0.50;0.10;;;2.90;1.00;;;;;;6037984;23;20413;-71
2022/12/19 16:17:19;;;;;;;0.50;0.10;;;2.90;1.00;;;;;;6036663;23;20436;-69
2022/12/19 16:19:47;;;;;;;0.50;0.10;;;2.90;1.00;;;;;;6037710;23;20412;-69
2022/12/19 16:22:18;;;;;;;0.50;0.10;;;2.90;1.00;;;;;;6037919;23;20389;-71
2022/12/19 16:24:46;;;;;;;0.50;0.10;;;2.90;1.00;;;;;;6037094;23;20409;-69
2022/12/19 16:27:20;;;;;;;0.80;0.80;;;2.90;1.00;;;;;;6038846;23;20429;-70
2022/12/19 16:29:49;;;;;;;0.50;0.10;;;2.90;1.00;;;;;;6039625;23;20536;-69
2022/12/19 16:32:18;;;;;;;0.50;0.10;;;2.80;1.00;;;;;;6038430;23;20449;-69
2022/12/19 16:34:46;;;;;;;0.50;0.10;;;2.80;1.00;;;;;;6039399;23;20936;-69
2022/12/19 16:37:14;;;;;;;0.50;0.10;;;2.90;1.00;;;;;;6039508;23;20447;-70
2022/12/19 16:39:42;;;;;;;0.50;0.10;;;2.90;1.00;;;;;;6038553;23;20499;-70
2022/12/19 16:42:14;;;;;;;0.50;0.10;;;2.90;1.00;;;;;;6038488;23;20404;-71
2022/12/19 16:44:44;;;;;;;0.50;0.10;;;2.80;1.00;;;;;;6038751;23;20415;-69
2022/12/19 16:47:14;;;;;;;0.50;0.10;;;2.80;1.00;;;;;;6038780;23;20477;-69
2022/12/19 16:49:44;;;;;;;0.50;0.10;;;2.90;1.00;;;;;;6038869;23;20455;-71
2022/12/19 16:52:12;;;;;;;0.50;0.20;;;2.90;1.00;;;;;;6038259;23;20535;-70
2022/12/19 16:54:40;;;;;;;0.50;0.10;;;2.90;1.00;;;;;;6038367;23;20777;-70
2022/12/19 16:57:18;;;;;;;0.50;0.10;;;2.90;1.00;;;;;;6038594;23;20753;-69
2022/12/19 16:59:46;;;;;;;0.50;0.10;;;2.90;1.00;;;;;;6038577;23;20421;-68
2022/12/19 17:02:37;;;;;;;0.50;0.10;;;2.90;1.00;;;;;;6038555;23;20926;-70
2022/12/19 17:05:14;;;;;;;0.50;0.20;;;2.80;1.00;;;;;;6038682;23;20468;-70
2022/12/19 17:07:41;;;;;;;0.50;0.10;;;2.80;1.00;;;;;;6039253;23;20431;-70
2022/12/19 17:10:10;;;;;;;0.50;0.10;;;2.80;1.00;;;;;;6038585;23;20413;-71
2022/12/19 17:12:39;;;;;;;0.77;0.77;;;2.90;1.00;;;;;;6038396;23;20501;-70
2022/12/19 17:15:16;;;;;;;0.50;0.20;;;2.90;1.00;;;;;;6039410;23;20479;-70
2022/12/19 17:17:45;;;;;;;0.50;0.10;;;2.90;1.00;;;;;;6038649;23;20436;-73
2022/12/19 17:20:17;;;;;;;0.50;0.10;;;2.90;1.00;;;;;;6040286;23;20409;-74
2022/12/19 17:22:45;;;;;;;1.03;0.93;;;2.90;1.00;;;;;;6039821;23;20909;-74
2022/12/19 17:25:18;;;;;;;9.47;8.77;;;2.90;1.00;;;;;;6041468;23;20473;-73
2022/12/19 17:27:47;;;;;;;0.50;0.10;;;2.90;1.00;;;;;;6041700;23;20440;-73
2022/12/19 17:30:15;;;;;;;0.50;0.10;;;2.90;1.00;;;;;;6042857;23;20572;-73
2022/12/19 17:32:45;;;;;;;0.50;0.10;;;2.90;1.00;;;;;;6039523;23;20446;-74
2022/12/19 17:35:20;;;;;;;0.50;0.10;;;2.90;1.00;;;;;;6039691;23;20423;-73
2022/12/19 17:37:57;;;;;;;0.50;0.10;;;2.90;1.00;;;;;;6039384;23;20428;-72
2022/12/19 17:40:27;;;;;;;0.50;0.10;;;2.90;1.00;;;;;;6039910;23;20392;-71
2022/12/19 17:42:55;;;;;;;0.50;0.10;;;2.90;1.00;;;;;;6036449;23;20420;-72
2022/12/19 17:45:24;;;;;;;0.50;0.10;;;2.90;1.00;;;;;;6040469;23;20415;-72
2022/12/19 17:47:54;;;;;;;0.50;0.10;;;2.90;1.00;;;;;;6039555;23;20420;-71
2022/12/19 17:50:36;;;;;;;0.50;0.10;;;2.90;1.00;;;;;;6040830;23;20392;-71
2022/12/19 17:53:04;;;;;;;0.50;0.10;;;2.90;1.00;;;;;;6038443;23;20587;-75
2022/12/19 17:55:33;;;;;;;0.50;0.10;;;2.90;1.00;;;;;;6038973;23;20802;-72
2022/12/19 17:58:01;;;;;;;0.50;0.10;;;;;;;;;;6039311;23;20432;-72
2022/12/19 18:00:32;;;;;;;0.50;0.10;;;2.90;1.00;;;;;;6039202;23;20421;-72
2022/12/19 18:03:03;;;;;;;0.50;0.10;;;2.90;1.00;;;;;;6039206;23;20411;-71
2022/12/19 18:05:35;;;;;;;0.50;0.10;;;2.90;1.00;;;;;;6039692;23;20867;-73